sensor_id;sensor_type;location;lat;lon;timestamp;P1;durP1;ratioP1;P2;durP2;ratioP2
18338;SDS011;9295;44.484;11.240;2023-02-01T00:01:45;9.80;;;5.50;;
18338;SDS011;9295;44.484;11.240;2023-02-01T00:04:14;10.70;;;5.50;;
18338;SDS011;9295;44.484;11.240;2023-02-01T00:06:42;11.47;;;5.53;;
18338;SDS011;9295;44.484;11.240;2023-02-01T00:09:12;9.33;;;4.97;;
18338;SDS011;9295;44.484;11.240;2023-02-01T00:11:41;9.40;;;6.20;;
18338;SDS011;9295;44.484;11.240;2023-02-01T00:14:09;12.37;;;6.60;;
18338;SDS011;9295;44.484;11.240;2023-02-01T00:16:38;11.03;;;6.53;;
18338;SDS011;9295;44.484;11.240;2023-02-01T00:19:07;12.60;;;6.20;;
18338;SDS011;9295;44.484;11.240;2023-02-01T00:21:38;12.83;;;6.20;;
18338;SDS011;9295;44.484;11.240;2023-02-01T00:24:08;12.00;;;6.30;;
18338;SDS011;9295;44.484;11.240;2023-02-01T00:26:39;13.60;;;7.00;;
18338;SDS011;9295;44.484;11.240;2023-02-01T00:29:10;14.93;;;6.87;;
18338;SDS011;9295;44.484;11.240;2023-02-01T00:31:40;9.07;;;5.40;;
18338;SDS011;9295;44.484;11.240;2023-02-01T00:34:10;9.83;;;5.80;;
18338;SDS011;9295;44.484;11.240;2023-02-01T00:36:40;12.70;;;6.77;;
18338;SDS011;9295;44.484;11.240;2023-02-01T00:39:10;9.20;;;5.47;;
18338;SDS011;9295;44.484;11.240;2023-02-01T00:41:40;12.03;;;6.00;;
18338;SDS011;9295;44.484;11.240;2023-02-01T00:44:09;14.17;;;8.10;;
18338;SDS011;9295;44.484;11.240;2023-02-01T00:46:37;17.43;;;8.03;;
18338;SDS011;9295;44.484;11.240;2023-02-01T00:49:06;26.80;;;8.83;;
18338;SDS011;9295;44.484;11.240;2023-02-01T00:51:35;12.03;;;7.67;;
18338;SDS011;9295;44.484;11.240;2023-02-01T00:54:04;16.33;;;8.20;;
18338;SDS011;9295;44.484;11.240;2023-02-01T00:56:33;15.00;;;7.90;;
18338;SDS011;9295;44.484;11.240;2023-02-01T00:59:03;18.37;;;7.57;;
18338;SDS011;9295;44.484;11.240;2023-02-01T01:01:31;11.43;;;6.57;;
18338;SDS011;9295;44.484;11.240;2023-02-01T01:03:59;11.93;;;6.10;;
18338;SDS011;9295;44.484;11.240;2023-02-01T01:06:29;12.43;;;5.50;;
18338;SDS011;9295;44.484;11.240;2023-02-01T01:09:00;15.67;;;6.40;;
18338;SDS011;9295;44.484;11.240;2023-02-01T01:11:35;12.40;;;5.57;;
18338;SDS011;9295;44.484;11.240;2023-02-01T01:14:07;12.40;;;6.20;;
18338;SDS011;9295;44.484;11.240;2023-02-01T01:16:36;11.57;;;5.90;;
18338;SDS011;9295;44.484;11.240;2023-02-01T01:19:05;12.63;;;7.13;;
18338;SDS011;9295;44.484;11.240;2023-02-01T01:21:34;11.60;;;6.20;;
18338;SDS011;9295;44.484;11.240;2023-02-01T01:24:02;13.33;;;7.03;;
18338;SDS011;9295;44.484;11.240;2023-02-01T01:26:31;12.80;;;6.60;;
18338;SDS011;9295;44.484;11.240;2023-02-01T01:29:00;12.13;;;6.53;;
18338;SDS011;9295;44.484;11.240;2023-02-01T01:31:30;11.73;;;6.30;;
18338;SDS011;9295;44.484;11.240;2023-02-01T01:33:59;13.30;;;6.77;;
18338;SDS011;9295;44.484;11.240;2023-02-01T01:36:29;15.03;;;6.93;;
18338;SDS011;9295;44.484;11.240;2023-02-01T01:38:57;11.27;;;6.37;;
18338;SDS011;9295;44.484;11.240;2023-02-01T01:41:28;24.23;;;7.20;;
18338;SDS011;9295;44.484;11.240;2023-02-01T01:47:26;12.17;;;6.50;;
18338;SDS011;9295;44.484;11.240;2023-02-01T01:49:57;14.83;;;6.93;;
18338;SDS011;9295;44.484;11.240;2023-02-01T01:52:25;15.50;;;6.60;;
18338;SDS011;9295;44.484;11.240;2023-02-01T01:54:54;14.90;;;7.00;;
18338;SDS011;9295;44.484;11.240;2023-02-01T01:57:24;13.07;;;7.13;;
18338;SDS011;9295;44.484;11.240;2023-02-01T01:59:58;11.30;;;6.07;;
18338;SDS011;9295;44.484;11.240;2023-02-01T02:02:40;12.37;;;6.40;;
18338;SDS011;9295;44.484;11.240;2023-02-01T02:05:11;13.90;;;6.50;;
18338;SDS011;9295;44.484;11.240;2023-02-01T02:07:41;10.40;;;5.40;;
18338;SDS011;9295;44.484;11.240;2023-02-01T02:10:14;11.53;;;6.40;;
18338;SDS011;9295;44.484;11.240;2023-02-01T02:12:44;11.97;;;6.03;;
18338;SDS011;9295;44.484;11.240;2023-02-01T02:15:15;12.27;;;5.97;;
18338;SDS011;9295;44.484;11.240;2023-02-01T02:17:52;14.30;;;7.37;;
18338;SDS011;9295;44.484;11.240;2023-02-01T02:20:30;15.83;;;8.67;;
18338;SDS011;9295;44.484;11.240;2023-02-01T02:23:22;11.53;;;6.50;;
18338;SDS011;9295;44.484;11.240;2023-02-01T02:26:24;10.90;;;5.90;;
18338;SDS011;9295;44.484;11.240;2023-02-01T02:32:18;13.57;;;7.07;;
18338;SDS011;9295;44.484;11.240;2023-02-01T02:35:03;13.50;;;7.17;;
18338;SDS011;9295;44.484;11.240;2023-02-01T02:37:38;15.73;;;7.90;;
18338;SDS011;9295;44.484;11.240;2023-02-01T02:40:13;11.50;;;6.40;;
18338;SDS011;9295;44.484;11.240;2023-02-01T02:42:49;15.20;;;6.03;;
18338;SDS011;9295;44.484;11.240;2023-02-01T02:45:42;12.47;;;6.10;;
18338;SDS011;9295;44.484;11.240;2023-02-01T02:48:37;11.97;;;6.67;;
18338;SDS011;9295;44.484;11.240;2023-02-01T02:51:14;13.10;;;6.70;;
18338;SDS011;9295;44.484;11.240;2023-02-01T02:54:07;17.97;;;9.07;;
18338;SDS011;9295;44.484;11.240;2023-02-01T02:56:58;16.03;;;9.13;;
18338;SDS011;9295;44.484;11.240;2023-02-01T02:59:47;13.90;;;8.50;;
18338;SDS011;9295;44.484;11.240;2023-02-01T03:02:34;11.40;;;6.17;;
18338;SDS011;9295;44.484;11.240;2023-02-01T03:05:20;17.17;;;7.77;;
18338;SDS011;9295;44.484;11.240;2023-02-01T03:07:55;13.23;;;6.43;;
18338;SDS011;9295;44.484;11.240;2023-02-01T03:10:35;15.53;;;8.20;;
18338;SDS011;9295;44.484;11.240;2023-02-01T03:13:17;14.70;;;7.70;;
18338;SDS011;9295;44.484;11.240;2023-02-01T03:15:51;19.30;;;8.37;;
18338;SDS011;9295;44.484;11.240;2023-02-01T03:18:26;21.17;;;10.47;;
18338;SDS011;9295;44.484;11.240;2023-02-01T03:21:02;21.30;;;10.57;;
18338;SDS011;9295;44.484;11.240;2023-02-01T03:23:36;21.47;;;10.20;;
18338;SDS011;9295;44.484;11.240;2023-02-01T03:26:07;21.53;;;9.93;;
18338;SDS011;9295;44.484;11.240;2023-02-01T03:28:39;22.87;;;8.90;;
18338;SDS011;9295;44.484;11.240;2023-02-01T03:31:10;23.20;;;10.23;;
18338;SDS011;9295;44.484;11.240;2023-02-01T03:33:40;19.53;;;9.47;;
18338;SDS011;9295;44.484;11.240;2023-02-01T03:36:13;19.80;;;10.27;;
18338;SDS011;9295;44.484;11.240;2023-02-01T03:38:48;20.37;;;8.90;;
18338;SDS011;9295;44.484;11.240;2023-02-01T03:41:23;20.60;;;8.70;;
18338;SDS011;9295;44.484;11.240;2023-02-01T03:43:57;24.93;;;9.83;;
18338;SDS011;9295;44.484;11.240;2023-02-01T03:46:30;17.27;;;8.80;;
18338;SDS011;9295;44.484;11.240;2023-02-01T03:49:03;19.43;;;9.40;;
18338;SDS011;9295;44.484;11.240;2023-02-01T03:51:36;20.13;;;9.50;;
18338;SDS011;9295;44.484;11.240;2023-02-01T03:54:10;23.33;;;10.67;;
18338;SDS011;9295;44.484;11.240;2023-02-01T03:56:42;24.30;;;11.53;;
18338;SDS011;9295;44.484;11.240;2023-02-01T03:59:13;23.60;;;9.67;;
18338;SDS011;9295;44.484;11.240;2023-02-01T04:01:42;23.03;;;10.50;;
18338;SDS011;9295;44.484;11.240;2023-02-01T04:04:11;23.30;;;10.67;;
18338;SDS011;9295;44.484;11.240;2023-02-01T04:06:50;22.30;;;10.77;;
18338;SDS011;9295;44.484;11.240;2023-02-01T04:09:21;21.60;;;9.67;;
18338;SDS011;9295;44.484;11.240;2023-02-01T04:11:49;22.80;;;10.70;;
18338;SDS011;9295;44.484;11.240;2023-02-01T04:14:18;21.23;;;10.47;;
18338;SDS011;9295;44.484;11.240;2023-02-01T04:16:46;22.57;;;10.80;;
18338;SDS011;9295;44.484;11.240;2023-02-01T04:19:15;22.60;;;11.47;;
18338;SDS011;9295;44.484;11.240;2023-02-01T04:21:43;21.33;;;11.33;;
18338;SDS011;9295;44.484;11.240;2023-02-01T04:24:12;22.10;;;11.47;;
18338;SDS011;9295;44.484;11.240;2023-02-01T04:26:42;24.73;;;12.33;;
18338;SDS011;9295;44.484;11.240;2023-02-01T04:29:10;22.77;;;11.30;;
18338;SDS011;9295;44.484;11.240;2023-02-01T04:31:39;25.40;;;11.50;;
18338;SDS011;9295;44.484;11.240;2023-02-01T04:34:07;25.27;;;11.17;;
18338;SDS011;9295;44.484;11.240;2023-02-01T04:36:36;28.23;;;12.20;;
18338;SDS011;9295;44.484;11.240;2023-02-01T04:39:04;27.03;;;11.30;;
18338;SDS011;9295;44.484;11.240;2023-02-01T04:41:33;26.77;;;12.20;;
18338;SDS011;9295;44.484;11.240;2023-02-01T04:44:03;25.53;;;12.13;;
18338;SDS011;9295;44.484;11.240;2023-02-01T04:46:31;24.43;;;11.13;;
18338;SDS011;9295;44.484;11.240;2023-02-01T04:49:00;28.77;;;11.87;;
18338;SDS011;9295;44.484;11.240;2023-02-01T04:51:28;21.60;;;10.17;;
18338;SDS011;9295;44.484;11.240;2023-02-01T04:53:57;25.07;;;10.20;;
18338;SDS011;9295;44.484;11.240;2023-02-01T04:56:25;26.67;;;11.67;;
18338;SDS011;9295;44.484;11.240;2023-02-01T04:58:54;23.23;;;11.30;;
18338;SDS011;9295;44.484;11.240;2023-02-01T05:01:24;24.53;;;11.90;;
18338;SDS011;9295;44.484;11.240;2023-02-01T05:03:52;20.23;;;10.10;;
18338;SDS011;9295;44.484;11.240;2023-02-01T05:06:21;20.80;;;10.03;;
18338;SDS011;9295;44.484;11.240;2023-02-01T05:08:50;20.77;;;9.30;;
18338;SDS011;9295;44.484;11.240;2023-02-01T05:11:18;20.10;;;7.83;;
18338;SDS011;9295;44.484;11.240;2023-02-01T05:14:04;17.70;;;8.23;;
18338;SDS011;9295;44.484;11.240;2023-02-01T05:16:34;17.07;;;7.90;;
18338;SDS011;9295;44.484;11.240;2023-02-01T05:19:03;16.63;;;7.93;;
18338;SDS011;9295;44.484;11.240;2023-02-01T05:21:31;14.70;;;7.57;;
18338;SDS011;9295;44.484;11.240;2023-02-01T05:24:00;22.30;;;7.83;;
18338;SDS011;9295;44.484;11.240;2023-02-01T05:26:39;19.10;;;8.07;;
18338;SDS011;9295;44.484;11.240;2023-02-01T05:29:08;15.67;;;7.97;;
18338;SDS011;9295;44.484;11.240;2023-02-01T05:31:39;16.90;;;8.93;;
18338;SDS011;9295;44.484;11.240;2023-02-01T05:34:08;18.53;;;9.33;;
18338;SDS011;9295;44.484;11.240;2023-02-01T05:36:36;24.60;;;10.77;;
18338;SDS011;9295;44.484;11.240;2023-02-01T05:39:05;21.27;;;9.97;;
18338;SDS011;9295;44.484;11.240;2023-02-01T05:41:34;20.03;;;9.93;;
18338;SDS011;9295;44.484;11.240;2023-02-01T05:44:02;24.87;;;10.73;;
18338;SDS011;9295;44.484;11.240;2023-02-01T05:46:31;21.93;;;10.87;;
18338;SDS011;9295;44.484;11.240;2023-02-01T05:49:01;26.67;;;11.47;;
18338;SDS011;9295;44.484;11.240;2023-02-01T05:51:30;23.93;;;11.30;;
18338;SDS011;9295;44.484;11.240;2023-02-01T05:54:00;28.03;;;12.60;;
18338;SDS011;9295;44.484;11.240;2023-02-01T05:56:28;31.33;;;13.83;;
18338;SDS011;9295;44.484;11.240;2023-02-01T05:58:56;30.43;;;13.83;;
18338;SDS011;9295;44.484;11.240;2023-02-01T06:01:25;33.27;;;14.50;;
18338;SDS011;9295;44.484;11.240;2023-02-01T06:03:53;40.93;;;16.20;;
18338;SDS011;9295;44.484;11.240;2023-02-01T06:06:23;40.90;;;16.77;;
18338;SDS011;9295;44.484;11.240;2023-02-01T06:08:52;33.73;;;15.60;;
18338;SDS011;9295;44.484;11.240;2023-02-01T06:11:20;35.50;;;15.10;;
18338;SDS011;9295;44.484;11.240;2023-02-01T06:13:58;37.90;;;16.03;;
18338;SDS011;9295;44.484;11.240;2023-02-01T06:16:27;37.20;;;17.67;;
18338;SDS011;9295;44.484;11.240;2023-02-01T06:18:56;37.40;;;18.43;;
18338;SDS011;9295;44.484;11.240;2023-02-01T06:21:26;37.43;;;18.03;;
18338;SDS011;9295;44.484;11.240;2023-02-01T06:23:54;42.90;;;18.70;;
18338;SDS011;9295;44.484;11.240;2023-02-01T06:26:24;41.57;;;17.27;;
18338;SDS011;9295;44.484;11.240;2023-02-01T06:28:52;40.17;;;18.97;;
18338;SDS011;9295;44.484;11.240;2023-02-01T06:31:21;48.33;;;18.17;;
18338;SDS011;9295;44.484;11.240;2023-02-01T06:33:52;58.17;;;23.10;;
18338;SDS011;9295;44.484;11.240;2023-02-01T06:36:20;105.83;;;35.40;;
18338;SDS011;9295;44.484;11.240;2023-02-01T06:38:50;62.90;;;27.60;;
18338;SDS011;9295;44.484;11.240;2023-02-01T06:41:19;42.30;;;19.90;;
18338;SDS011;9295;44.484;11.240;2023-02-01T06:43:48;41.00;;;17.77;;
18338;SDS011;9295;44.484;11.240;2023-02-01T06:46:16;39.63;;;18.07;;
18338;SDS011;9295;44.484;11.240;2023-02-01T06:48:45;39.53;;;18.67;;
18338;SDS011;9295;44.484;11.240;2023-02-01T06:51:23;47.63;;;19.20;;
18338;SDS011;9295;44.484;11.240;2023-02-01T06:53:54;42.33;;;19.77;;
18338;SDS011;9295;44.484;11.240;2023-02-01T06:56:22;49.60;;;21.07;;
18338;SDS011;9295;44.484;11.240;2023-02-01T06:58:51;44.70;;;20.33;;
18338;SDS011;9295;44.484;11.240;2023-02-01T07:01:20;48.83;;;21.50;;
18338;SDS011;9295;44.484;11.240;2023-02-01T07:03:49;47.67;;;19.80;;
18338;SDS011;9295;44.484;11.240;2023-02-01T07:06:18;39.33;;;18.50;;
18338;SDS011;9295;44.484;11.240;2023-02-01T07:08:48;35.63;;;17.33;;
18338;SDS011;9295;44.484;11.240;2023-02-01T07:11:18;35.73;;;17.37;;
18338;SDS011;9295;44.484;11.240;2023-02-01T07:13:47;37.27;;;16.67;;
18338;SDS011;9295;44.484;11.240;2023-02-01T07:16:16;33.57;;;17.47;;
18338;SDS011;9295;44.484;11.240;2023-02-01T07:18:46;30.50;;;15.20;;
18338;SDS011;9295;44.484;11.240;2023-02-01T07:21:15;33.33;;;15.20;;
18338;SDS011;9295;44.484;11.240;2023-02-01T07:23:43;39.47;;;16.50;;
18338;SDS011;9295;44.484;11.240;2023-02-01T07:26:13;33.37;;;15.80;;
18338;SDS011;9295;44.484;11.240;2023-02-01T07:28:44;24.50;;;14.07;;
18338;SDS011;9295;44.484;11.240;2023-02-01T07:31:14;27.23;;;13.97;;
18338;SDS011;9295;44.484;11.240;2023-02-01T07:33:45;22.20;;;12.87;;
18338;SDS011;9295;44.484;11.240;2023-02-01T07:36:14;24.50;;;11.20;;
18338;SDS011;9295;44.484;11.240;2023-02-01T07:38:44;22.77;;;11.70;;
18338;SDS011;9295;44.484;11.240;2023-02-01T07:41:13;21.20;;;12.90;;
18338;SDS011;9295;44.484;11.240;2023-02-01T07:43:42;23.57;;;13.40;;
18338;SDS011;9295;44.484;11.240;2023-02-01T07:46:13;25.03;;;13.50;;
18338;SDS011;9295;44.484;11.240;2023-02-01T07:48:43;28.13;;;15.80;;
18338;SDS011;9295;44.484;11.240;2023-02-01T07:51:12;29.23;;;15.40;;
18338;SDS011;9295;44.484;11.240;2023-02-01T07:53:42;33.53;;;16.70;;
18338;SDS011;9295;44.484;11.240;2023-02-01T07:56:12;26.77;;;16.00;;
18338;SDS011;9295;44.484;11.240;2023-02-01T07:58:42;30.70;;;16.73;;
18338;SDS011;9295;44.484;11.240;2023-02-01T08:01:16;28.60;;;18.07;;
18338;SDS011;9295;44.484;11.240;2023-02-01T08:03:51;33.13;;;16.33;;
18338;SDS011;9295;44.484;11.240;2023-02-01T08:06:21;33.60;;;17.80;;
18338;SDS011;9295;44.484;11.240;2023-02-01T08:08:50;35.40;;;16.30;;
18338;SDS011;9295;44.484;11.240;2023-02-01T08:11:20;28.20;;;16.70;;
18338;SDS011;9295;44.484;11.240;2023-02-01T08:13:49;57.80;;;19.60;;
18338;SDS011;9295;44.484;11.240;2023-02-01T08:16:20;69.27;;;19.70;;
18338;SDS011;9295;44.484;11.240;2023-02-01T08:18:49;54.60;;;19.20;;
18338;SDS011;9295;44.484;11.240;2023-02-01T08:21:19;92.43;;;20.67;;
18338;SDS011;9295;44.484;11.240;2023-02-01T08:23:49;80.80;;;21.03;;
18338;SDS011;9295;44.484;11.240;2023-02-01T08:26:18;50.77;;;18.00;;
18338;SDS011;9295;44.484;11.240;2023-02-01T08:28:49;50.57;;;16.87;;
18338;SDS011;9295;44.484;11.240;2023-02-01T08:31:22;42.03;;;15.60;;
18338;SDS011;9295;44.484;11.240;2023-02-01T08:33:52;35.87;;;15.83;;
18338;SDS011;9295;44.484;11.240;2023-02-01T08:36:23;53.27;;;17.63;;
18338;SDS011;9295;44.484;11.240;2023-02-01T08:38:53;62.60;;;19.70;;
18338;SDS011;9295;44.484;11.240;2023-02-01T08:41:22;62.50;;;17.77;;
18338;SDS011;9295;44.484;11.240;2023-02-01T08:43:53;39.70;;;17.43;;
18338;SDS011;9295;44.484;11.240;2023-02-01T08:46:23;34.93;;;16.10;;
18338;SDS011;9295;44.484;11.240;2023-02-01T08:48:51;30.50;;;16.60;;
18338;SDS011;9295;44.484;11.240;2023-02-01T08:51:21;71.87;;;17.37;;
18338;SDS011;9295;44.484;11.240;2023-02-01T08:53:51;74.13;;;20.30;;
18338;SDS011;9295;44.484;11.240;2023-02-01T08:56:19;74.00;;;19.53;;
18338;SDS011;9295;44.484;11.240;2023-02-01T08:58:48;54.57;;;18.43;;
18338;SDS011;9295;44.484;11.240;2023-02-01T09:01:17;44.23;;;17.60;;
18338;SDS011;9295;44.484;11.240;2023-02-01T09:03:47;48.00;;;18.90;;
18338;SDS011;9295;44.484;11.240;2023-02-01T09:06:16;48.13;;;19.10;;
18338;SDS011;9295;44.484;11.240;2023-02-01T09:08:45;37.10;;;16.83;;
18338;SDS011;9295;44.484;11.240;2023-02-01T09:11:14;38.50;;;16.60;;
18338;SDS011;9295;44.484;11.240;2023-02-01T09:13:43;34.00;;;17.10;;
18338;SDS011;9295;44.484;11.240;2023-02-01T09:16:12;36.00;;;17.37;;
18338;SDS011;9295;44.484;11.240;2023-02-01T09:18:41;30.83;;;16.87;;
18338;SDS011;9295;44.484;11.240;2023-02-01T09:21:28;33.20;;;16.50;;
18338;SDS011;9295;44.484;11.240;2023-02-01T09:23:57;36.17;;;16.10;;
18338;SDS011;9295;44.484;11.240;2023-02-01T09:26:26;35.63;;;16.80;;
18338;SDS011;9295;44.484;11.240;2023-02-01T09:28:58;35.07;;;16.30;;
18338;SDS011;9295;44.484;11.240;2023-02-01T09:31:27;38.73;;;17.80;;
18338;SDS011;9295;44.484;11.240;2023-02-01T09:33:56;41.00;;;20.20;;
18338;SDS011;9295;44.484;11.240;2023-02-01T09:36:25;43.80;;;19.60;;
18338;SDS011;9295;44.484;11.240;2023-02-01T09:38:58;38.73;;;19.80;;
18338;SDS011;9295;44.484;11.240;2023-02-01T09:41:32;44.00;;;21.87;;
18338;SDS011;9295;44.484;11.240;2023-02-01T09:44:08;40.70;;;20.43;;
18338;SDS011;9295;44.484;11.240;2023-02-01T09:46:46;38.43;;;20.23;;
18338;SDS011;9295;44.484;11.240;2023-02-01T09:49:16;42.83;;;22.93;;
18338;SDS011;9295;44.484;11.240;2023-02-01T09:51:49;49.17;;;24.63;;
18338;SDS011;9295;44.484;11.240;2023-02-01T09:54:22;49.20;;;24.00;;
18338;SDS011;9295;44.484;11.240;2023-02-01T09:56:56;48.93;;;26.63;;
18338;SDS011;9295;44.484;11.240;2023-02-01T09:59:32;50.47;;;27.93;;
18338;SDS011;9295;44.484;11.240;2023-02-01T10:02:10;54.67;;;27.50;;
18338;SDS011;9295;44.484;11.240;2023-02-01T10:04:41;51.03;;;27.97;;
18338;SDS011;9295;44.484;11.240;2023-02-01T10:07:12;50.87;;;29.40;;
18338;SDS011;9295;44.484;11.240;2023-02-01T10:09:54;51.50;;;28.40;;
18338;SDS011;9295;44.484;11.240;2023-02-01T10:15:38;54.50;;;29.50;;
18338;SDS011;9295;44.484;11.240;2023-02-01T10:18:26;52.20;;;29.33;;
18338;SDS011;9295;44.484;11.240;2023-02-01T10:21:02;50.40;;;28.10;;
18338;SDS011;9295;44.484;11.240;2023-02-01T10:23:41;49.00;;;26.20;;
18338;SDS011;9295;44.484;11.240;2023-02-01T10:26:33;43.03;;;25.13;;
18338;SDS011;9295;44.484;11.240;2023-02-01T10:29:09;51.23;;;26.73;;
18338;SDS011;9295;44.484;11.240;2023-02-01T10:31:43;49.40;;;26.67;;
18338;SDS011;9295;44.484;11.240;2023-02-01T10:34:14;47.50;;;24.80;;
18338;SDS011;9295;44.484;11.240;2023-02-01T10:36:50;49.53;;;27.20;;
18338;SDS011;9295;44.484;11.240;2023-02-01T10:39:22;48.60;;;26.93;;
18338;SDS011;9295;44.484;11.240;2023-02-01T10:41:52;41.10;;;23.73;;
18338;SDS011;9295;44.484;11.240;2023-02-01T10:44:24;45.03;;;24.00;;
18338;SDS011;9295;44.484;11.240;2023-02-01T10:46:55;41.23;;;23.70;;
18338;SDS011;9295;44.484;11.240;2023-02-01T10:49:24;36.67;;;21.47;;
18338;SDS011;9295;44.484;11.240;2023-02-01T10:52:01;51.50;;;23.67;;
18338;SDS011;9295;44.484;11.240;2023-02-01T10:54:35;46.63;;;24.13;;
18338;SDS011;9295;44.484;11.240;2023-02-01T10:57:08;41.13;;;23.10;;
18338;SDS011;9295;44.484;11.240;2023-02-01T10:59:37;43.80;;;24.37;;
18338;SDS011;9295;44.484;11.240;2023-02-01T11:02:13;40.40;;;21.03;;
18338;SDS011;9295;44.484;11.240;2023-02-01T11:04:48;53.30;;;24.50;;
18338;SDS011;9295;44.484;11.240;2023-02-01T11:07:18;45.00;;;23.93;;
18338;SDS011;9295;44.484;11.240;2023-02-01T11:09:51;42.80;;;22.90;;
18338;SDS011;9295;44.484;11.240;2023-02-01T11:12:29;41.50;;;21.73;;
18338;SDS011;9295;44.484;11.240;2023-02-01T11:15:01;40.10;;;21.10;;
18338;SDS011;9295;44.484;11.240;2023-02-01T11:17:42;39.73;;;21.50;;
18338;SDS011;9295;44.484;11.240;2023-02-01T11:20:13;46.70;;;23.00;;
18338;SDS011;9295;44.484;11.240;2023-02-01T11:22:46;49.23;;;22.67;;
18338;SDS011;9295;44.484;11.240;2023-02-01T11:25:16;37.90;;;21.60;;
18338;SDS011;9295;44.484;11.240;2023-02-01T11:27:48;42.70;;;22.20;;
18338;SDS011;9295;44.484;11.240;2023-02-01T11:30:24;36.07;;;22.13;;
18338;SDS011;9295;44.484;11.240;2023-02-01T11:32:59;48.27;;;22.23;;
18338;SDS011;9295;44.484;11.240;2023-02-01T11:35:32;41.80;;;20.97;;
18338;SDS011;9295;44.484;11.240;2023-02-01T11:38:10;42.93;;;22.50;;
18338;SDS011;9295;44.484;11.240;2023-02-01T11:40:41;36.50;;;20.90;;
18338;SDS011;9295;44.484;11.240;2023-02-01T11:43:22;42.50;;;20.70;;
18338;SDS011;9295;44.484;11.240;2023-02-01T11:45:55;40.83;;;20.03;;
18338;SDS011;9295;44.484;11.240;2023-02-01T11:48:26;49.83;;;21.50;;
18338;SDS011;9295;44.484;11.240;2023-02-01T11:51:01;37.70;;;21.13;;
18338;SDS011;9295;44.484;11.240;2023-02-01T11:53:58;36.97;;;18.83;;
18338;SDS011;9295;44.484;11.240;2023-02-01T11:56:36;36.67;;;19.57;;
18338;SDS011;9295;44.484;11.240;2023-02-01T11:59:13;34.60;;;19.10;;
18338;SDS011;9295;44.484;11.240;2023-02-01T12:01:59;36.03;;;19.13;;
18338;SDS011;9295;44.484;11.240;2023-02-01T12:04:43;33.10;;;17.23;;
18338;SDS011;9295;44.484;11.240;2023-02-01T12:07:28;32.67;;;17.20;;
18338;SDS011;9295;44.484;11.240;2023-02-01T12:10:12;31.03;;;18.00;;
18338;SDS011;9295;44.484;11.240;2023-02-01T12:12:54;36.47;;;17.97;;
18338;SDS011;9295;44.484;11.240;2023-02-01T12:15:35;36.73;;;19.10;;
18338;SDS011;9295;44.484;11.240;2023-02-01T12:18:24;36.43;;;18.40;;
18338;SDS011;9295;44.484;11.240;2023-02-01T12:24:21;40.80;;;20.53;;
18338;SDS011;9295;44.484;11.240;2023-02-01T12:27:07;39.30;;;20.67;;
18338;SDS011;9295;44.484;11.240;2023-02-01T12:29:48;30.50;;;19.27;;
18338;SDS011;9295;44.484;11.240;2023-02-01T12:32:38;32.83;;;18.90;;
18338;SDS011;9295;44.484;11.240;2023-02-01T12:35:26;35.87;;;20.40;;
18338;SDS011;9295;44.484;11.240;2023-02-01T12:38:14;34.77;;;17.40;;
18338;SDS011;9295;44.484;11.240;2023-02-01T12:41:00;33.50;;;17.47;;
18338;SDS011;9295;44.484;11.240;2023-02-01T12:43:43;30.97;;;16.00;;
18338;SDS011;9295;44.484;11.240;2023-02-01T12:46:16;35.10;;;17.47;;
18338;SDS011;9295;44.484;11.240;2023-02-01T12:48:52;40.60;;;17.77;;
18338;SDS011;9295;44.484;11.240;2023-02-01T12:51:25;31.93;;;17.27;;
18338;SDS011;9295;44.484;11.240;2023-02-01T12:53:59;32.03;;;17.37;;
18338;SDS011;9295;44.484;11.240;2023-02-01T12:56:32;35.30;;;17.30;;
18338;SDS011;9295;44.484;11.240;2023-02-01T12:59:04;38.73;;;18.90;;
18338;SDS011;9295;44.484;11.240;2023-02-01T13:01:39;29.30;;;15.27;;
18338;SDS011;9295;44.484;11.240;2023-02-01T13:04:17;29.80;;;15.20;;
18338;SDS011;9295;44.484;11.240;2023-02-01T13:06:52;28.07;;;14.73;;
18338;SDS011;9295;44.484;11.240;2023-02-01T13:09:25;31.53;;;15.63;;
18338;SDS011;9295;44.484;11.240;2023-02-01T13:11:57;28.53;;;14.37;;
18338;SDS011;9295;44.484;11.240;2023-02-01T13:14:30;37.33;;;16.03;;
18338;SDS011;9295;44.484;11.240;2023-02-01T13:17:05;30.83;;;15.10;;
18338;SDS011;9295;44.484;11.240;2023-02-01T13:19:46;27.57;;;15.20;;
18338;SDS011;9295;44.484;11.240;2023-02-01T13:22:19;27.53;;;15.20;;
18338;SDS011;9295;44.484;11.240;2023-02-01T13:24:52;32.90;;;16.40;;
18338;SDS011;9295;44.484;11.240;2023-02-01T13:27:23;31.10;;;16.40;;
18338;SDS011;9295;44.484;11.240;2023-02-01T13:29:57;27.20;;;15.50;;
18338;SDS011;9295;44.484;11.240;2023-02-01T13:32:45;27.90;;;15.50;;
18338;SDS011;9295;44.484;11.240;2023-02-01T13:35:55;27.37;;;15.77;;
18338;SDS011;9295;44.484;11.240;2023-02-01T13:41:39;31.27;;;16.57;;
18338;SDS011;9295;44.484;11.240;2023-02-01T13:44:11;32.60;;;15.63;;
18338;SDS011;9295;44.484;11.240;2023-02-01T13:46:44;33.13;;;16.57;;
18338;SDS011;9295;44.484;11.240;2023-02-01T13:49:18;32.20;;;18.17;;
18338;SDS011;9295;44.484;11.240;2023-02-01T13:51:52;33.27;;;16.60;;
18338;SDS011;9295;44.484;11.240;2023-02-01T13:54:26;30.43;;;16.30;;
18338;SDS011;9295;44.484;11.240;2023-02-01T13:56:58;29.00;;;16.13;;
18338;SDS011;9295;44.484;11.240;2023-02-01T14:06:00;31.13;;;15.87;;
18338;SDS011;9295;44.484;11.240;2023-02-01T14:08:45;28.77;;;16.93;;
18338;SDS011;9295;44.484;11.240;2023-02-01T14:11:39;35.30;;;17.00;;
18338;SDS011;9295;44.484;11.240;2023-02-01T14:23:13;32.37;;;15.97;;
18338;SDS011;9295;44.484;11.240;2023-02-01T14:25:45;30.87;;;16.33;;
18338;SDS011;9295;44.484;11.240;2023-02-01T14:28:28;32.83;;;15.50;;
18338;SDS011;9295;44.484;11.240;2023-02-01T14:30:57;31.10;;;16.00;;
18338;SDS011;9295;44.484;11.240;2023-02-01T14:33:27;27.23;;;15.93;;
18338;SDS011;9295;44.484;11.240;2023-02-01T14:36:01;29.97;;;16.40;;
18338;SDS011;9295;44.484;11.240;2023-02-01T14:38:34;30.33;;;16.60;;
18338;SDS011;9295;44.484;11.240;2023-02-01T14:41:22;36.33;;;16.53;;
18338;SDS011;9295;44.484;11.240;2023-02-01T14:52:50;33.67;;;17.33;;
18338;SDS011;9295;44.484;11.240;2023-02-01T14:55:27;39.97;;;16.60;;
18338;SDS011;9295;44.484;11.240;2023-02-01T14:58:04;33.97;;;15.90;;
18338;SDS011;9295;44.484;11.240;2023-02-01T15:00:46;30.57;;;16.43;;
18338;SDS011;9295;44.484;11.240;2023-02-01T15:03:25;32.40;;;17.23;;
18338;SDS011;9295;44.484;11.240;2023-02-01T15:06:20;35.70;;;16.20;;
18338;SDS011;9295;44.484;11.240;2023-02-01T15:08:52;34.90;;;16.53;;
18338;SDS011;9295;44.484;11.240;2023-02-01T15:11:23;26.53;;;15.20;;
18338;SDS011;9295;44.484;11.240;2023-02-01T15:13:53;32.03;;;16.13;;
18338;SDS011;9295;44.484;11.240;2023-02-01T15:16:24;35.47;;;16.70;;
18338;SDS011;9295;44.484;11.240;2023-02-01T15:19:06;36.60;;;18.70;;
18338;SDS011;9295;44.484;11.240;2023-02-01T15:21:43;32.13;;;17.70;;
18338;SDS011;9295;44.484;11.240;2023-02-01T15:24:14;33.90;;;16.60;;
18338;SDS011;9295;44.484;11.240;2023-02-01T15:26:48;36.60;;;18.97;;
18338;SDS011;9295;44.484;11.240;2023-02-01T15:29:19;44.33;;;18.67;;
18338;SDS011;9295;44.484;11.240;2023-02-01T15:31:49;36.97;;;17.20;;
18338;SDS011;9295;44.484;11.240;2023-02-01T15:34:19;30.63;;;17.17;;
18338;SDS011;9295;44.484;11.240;2023-02-01T15:36:48;47.97;;;20.83;;
18338;SDS011;9295;44.484;11.240;2023-02-01T15:39:29;31.90;;;17.03;;
18338;SDS011;9295;44.484;11.240;2023-02-01T15:42:00;37.63;;;17.27;;